Thrift, Washington
Current Conditions -  °F | °C
As of 8:58 PM on Wednesday 22 Oct 2014 (Local Time) from KTCM Reporting Station
Overcast Overcast  
Wind Chill: 58°   Ceiling: 7000
Heat Index: 58°   Visibility: 10mi
Dew Point: 53°   Wind: 14mph
Humidity: 84%   Direction: 200°SSW
Pressure: 29.63"   Gusts: 29mph
Location:  47.0168°N, 122.279°W
Report Text: KTCM 230358Z AUTO 20012G25KT 10SM FEW048 BKN070 OVC085 14/12 A2963 RMK AO2 RAE0307 SLP037 P0001 T01420116 $
Loading
Personal Weather Stations






























Interactive Weather Map
Tropical Storm Tracking
New forecast layout! Learn more

10-Day Weather Forecast

Advertisements
Track Severe Weather on mobile